createdAt,value
2019-02-23T00:01:48.342Z,7.93
2019-02-23T00:04:17.414Z,8.13
2019-02-23T00:06:46.519Z,7.90
2019-02-23T00:09:15.791Z,7.98
2019-02-23T00:11:50.152Z,8.11
2019-02-23T00:14:19.290Z,8.09
2019-02-23T00:16:49.500Z,8.11
2019-02-23T00:19:24.898Z,8.11
2019-02-23T00:21:52.223Z,8.21
2019-02-23T00:24:21.348Z,8.43
2019-02-23T00:26:53.353Z,8.29
2019-02-23T00:29:30.582Z,8.18
2019-02-23T00:31:59.712Z,8.33
2019-02-23T00:34:34.119Z,8.51
2019-02-23T00:37:03.244Z,8.45
2019-02-23T00:39:37.239Z,8.44
2019-02-23T00:42:08.552Z,8.60
2019-02-23T00:44:45.863Z,8.34
2019-02-23T00:47:15.076Z,8.16
2019-02-23T00:49:45.123Z,6.86
2019-02-23T00:52:14.240Z,7.98
2019-02-23T00:54:44.675Z,8.09
2019-02-23T00:57:16.026Z,7.94
2019-02-23T00:59:48.086Z,7.90
2019-02-23T01:02:23.128Z,7.75
2019-02-23T01:04:54.985Z,7.83
2019-02-23T01:07:24.489Z,7.83
2019-02-23T01:09:55.331Z,8.00
2019-02-23T01:12:28.191Z,8.14
2019-02-23T01:15:01.123Z,8.07
2019-02-23T01:17:31.765Z,8.13
2019-02-23T01:20:00.871Z,8.24
2019-02-23T01:22:30.263Z,8.24
2019-02-23T01:24:59.385Z,8.37
2019-02-23T01:27:28.479Z,8.16
2019-02-23T01:30:02.258Z,8.08
2019-02-23T01:32:31.091Z,7.97
2019-02-23T01:35:00.300Z,8.03
2019-02-23T01:37:29.404Z,7.98
2019-02-23T01:39:58.560Z,8.25
2019-02-23T01:42:31.090Z,8.26
2019-02-23T01:45:02.759Z,8.03
2019-02-23T01:47:31.996Z,7.99
2019-02-23T01:50:03.952Z,7.82
2019-02-23T01:52:36.946Z,7.73
2019-02-23T01:55:08.193Z,7.38
2019-02-23T01:57:40.230Z,7.36
2019-02-23T02:00:21.246Z,7.34
2019-02-23T02:02:50.364Z,7.50
2019-02-23T02:05:19.448Z,7.76
2019-02-23T02:07:54.380Z,7.83
2019-02-23T02:10:21.136Z,7.70
2019-02-23T02:12:52.312Z,7.60
2019-02-23T02:15:25.330Z,7.53
2019-02-23T02:17:57.015Z,7.12
2019-02-23T02:20:31.074Z,7.15
2019-02-23T02:23:02.892Z,6.91
2019-02-23T02:25:33.507Z,6.77
2019-02-23T02:28:02.622Z,6.53
2019-02-23T02:30:31.735Z,6.38
2019-02-23T02:33:00.868Z,6.23
2019-02-23T02:35:31.114Z,6.07
2019-02-23T02:38:10.871Z,5.90
2019-02-23T02:40:46.738Z,5.82
2019-02-23T02:43:15.957Z,5.80
2019-02-23T02:45:45.424Z,5.74
2019-02-23T02:48:16.268Z,5.57
2019-02-23T02:50:46.553Z,5.49
2019-02-23T02:53:15.658Z,5.41
2019-02-23T02:55:47.850Z,3.42
2019-02-23T02:58:18.688Z,5.44
2019-02-23T03:00:47.779Z,5.50
2019-02-23T03:03:18.446Z,5.51
2019-02-23T03:05:47.523Z,5.51
2019-02-23T03:08:17.751Z,5.39
2019-02-23T03:10:46.822Z,5.70
2019-02-23T03:13:21.501Z,5.79
2019-02-23T03:15:54.667Z,5.79
2019-02-23T03:18:23.763Z,5.84
2019-02-23T03:20:53.214Z,5.93
2019-02-23T03:23:26.813Z,5.65
2019-02-23T03:25:57.686Z,5.71
2019-02-23T03:28:35.932Z,5.64
2019-02-23T03:31:05.358Z,5.66
2019-02-23T03:33:38.392Z,5.68
2019-02-23T03:36:09.672Z,5.76
2019-02-23T03:38:39.119Z,5.92
2019-02-23T03:41:29.339Z,6.05
2019-02-23T03:43:59.165Z,6.06
2019-02-23T03:46:28.402Z,5.82
2019-02-23T03:48:57.536Z,5.63
2019-02-23T03:51:26.609Z,5.57
2019-02-23T03:53:57.619Z,5.70
2019-02-23T03:56:27.100Z,5.85
2019-02-23T03:58:56.229Z,5.76
2019-02-23T04:01:27.077Z,5.77
2019-02-23T04:03:57.574Z,5.79
2019-02-23T04:06:29.800Z,5.53
2019-02-23T04:08:58.937Z,5.51
2019-02-23T04:11:28.102Z,5.86
2019-02-23T04:13:57.182Z,5.79
2019-02-23T04:16:27.199Z,6.14
2019-02-23T04:18:56.458Z,6.31
2019-02-23T04:21:25.561Z,4.55
2019-02-23T04:23:56.885Z,7.09
2019-02-23T04:26:26.447Z,7.43
2019-02-23T04:28:56.854Z,7.48
2019-02-23T04:31:30.884Z,5.98
2019-02-23T04:34:07.543Z,7.26
2019-02-23T04:36:36.659Z,7.21
2019-02-23T04:39:15.986Z,7.50
2019-02-23T04:41:45.081Z,6.96
2019-02-23T04:44:16.939Z,7.46
2019-02-23T04:46:48.714Z,7.57
2019-02-23T04:49:18.211Z,7.79
2019-02-23T04:51:49.502Z,7.66
2019-02-23T04:54:21.605Z,7.57
2019-02-23T04:56:51.357Z,7.48
2019-02-23T04:59:20.590Z,7.65
2019-02-23T05:01:50.585Z,7.62
2019-02-23T05:04:25.288Z,5.90
2019-02-23T05:06:54.454Z,7.98
2019-02-23T05:09:23.961Z,7.58
2019-02-23T05:11:53.223Z,7.57
2019-02-23T05:14:25.119Z,7.32
2019-02-23T05:16:55.349Z,6.92
2019-02-23T05:19:24.914Z,6.76
2019-02-23T05:21:53.980Z,6.47
2019-02-23T05:24:24.768Z,6.32
2019-02-23T05:26:53.882Z,6.07
2019-02-23T05:29:23.015Z,-0.09
2019-02-23T05:31:52.090Z,5.83
2019-02-23T05:34:23.147Z,5.75
2019-02-23T05:36:52.299Z,5.68
2019-02-23T05:39:21.374Z,5.64
2019-02-23T05:41:53.081Z,5.59
2019-02-23T05:44:22.207Z,5.64
2019-02-23T05:46:53.259Z,5.83
2019-02-23T05:49:22.467Z,5.84
2019-02-23T05:51:53.353Z,5.55
2019-02-23T05:54:22.497Z,5.64
2019-02-23T05:57:01.490Z,5.64
2019-02-23T05:59:40.719Z,6.21
2019-02-23T06:02:09.833Z,6.57
2019-02-23T06:04:49.043Z,6.67
2019-02-23T06:07:09.907Z,6.48
2019-02-23T06:09:38.990Z,6.27
2019-02-23T06:12:08.367Z,6.25
2019-02-23T06:14:42.952Z,6.26
2019-02-23T06:17:13.361Z,6.01
2019-02-23T06:19:42.481Z,5.88
2019-02-23T06:22:13.715Z,6.03
2019-02-23T06:24:51.294Z,6.06
2019-02-23T06:27:20.363Z,6.29
2019-02-23T06:29:49.490Z,6.02
2019-02-23T06:32:20.277Z,3.95
2019-02-23T06:34:54.551Z,6.51
2019-02-23T06:37:23.663Z,5.93
2019-02-23T06:39:53.128Z,6.87
2019-02-23T06:42:22.241Z,6.52
2019-02-23T06:44:51.541Z,6.57
2019-02-23T06:47:23.913Z,6.32
2019-02-23T06:49:55.189Z,5.99
2019-02-23T06:52:24.052Z,5.88
2019-02-23T06:54:53.179Z,5.85
2019-02-23T06:57:23.393Z,5.78
2019-02-23T06:59:53.374Z,5.63
2019-02-23T07:02:24.095Z,5.54
2019-02-23T07:04:56.192Z,5.55
2019-02-23T07:07:25.327Z,5.48
2019-02-23T07:09:54.699Z,5.50
2019-02-23T07:12:28.100Z,5.43
2019-02-23T07:14:57.420Z,5.52
2019-02-23T07:17:28.219Z,5.55
2019-02-23T07:19:57.411Z,5.40
2019-02-23T07:22:26.754Z,5.23
2019-02-23T07:24:56.138Z,5.07
2019-02-23T07:27:26.339Z,5.15
2019-02-23T07:29:59.115Z,5.21
2019-02-23T07:32:28.309Z,5.04
2019-02-23T07:34:58.710Z,5.23
2019-02-23T07:37:32.465Z,4.94
2019-02-23T07:40:02.869Z,5.05
2019-02-23T07:42:43.957Z,5.26
2019-02-23T07:45:19.162Z,5.30
2019-02-23T07:47:48.369Z,5.07
2019-02-23T07:50:17.467Z,-4.83
2019-02-23T07:52:50.057Z,5.52
2019-02-23T07:55:17.753Z,5.22
2019-02-23T07:57:47.053Z,5.47
2019-02-23T08:00:19.820Z,5.35
2019-02-23T08:02:48.919Z,5.26
2019-02-23T08:05:21.670Z,5.29
2019-02-23T08:07:55.846Z,5.19
2019-02-23T08:10:29.358Z,5.23
2019-02-23T08:13:00.163Z,5.02
2019-02-23T08:15:29.271Z,5.19
2019-02-23T08:17:59.972Z,5.12
2019-02-23T08:20:29.140Z,5.18
2019-02-23T08:22:58.263Z,5.14
2019-02-23T08:25:28.907Z,5.30
2019-02-23T08:27:58.767Z,5.51
2019-02-23T08:30:32.790Z,5.65
2019-02-23T08:33:06.445Z,5.60
2019-02-23T08:35:37.147Z,5.92
2019-02-23T08:38:06.570Z,5.93
2019-02-23T08:40:36.041Z,6.21
2019-02-23T08:43:10.079Z,6.11
2019-02-23T08:45:39.199Z,6.18
2019-02-23T08:48:08.294Z,6.24
2019-02-23T08:50:41.877Z,6.04
2019-02-23T08:53:14.491Z,5.92
2019-02-23T08:55:48.201Z,6.05
2019-02-23T08:58:19.956Z,6.23
2019-02-23T09:00:49.470Z,6.36
2019-02-23T09:03:25.233Z,6.27
2019-02-23T09:05:54.337Z,6.47
2019-02-23T09:08:23.673Z,6.56
2019-02-23T09:10:53.691Z,6.53
2019-02-23T09:13:23.815Z,6.45
2019-02-23T09:16:01.447Z,6.37
2019-02-23T09:18:34.929Z,6.36
2019-02-23T09:21:06.652Z,6.60
2019-02-23T09:23:41.935Z,6.35
2019-02-23T09:26:11.154Z,6.37
2019-02-23T09:28:40.334Z,6.62
2019-02-23T09:31:10.249Z,6.55
2019-02-23T09:33:41.266Z,6.97
2019-02-23T09:36:10.360Z,7.13
2019-02-23T09:38:39.460Z,7.04
2019-02-23T09:41:09.681Z,7.07
2019-02-23T09:43:39.172Z,6.84
2019-02-23T09:46:08.583Z,6.97
2019-02-23T09:48:39.395Z,6.88
2019-02-23T09:51:09.371Z,7.01
2019-02-23T09:53:40.239Z,7.10
2019-02-23T09:56:17.262Z,7.02
2019-02-23T09:58:49.634Z,7.26
2019-02-23T10:01:19.060Z,7.22
2019-02-23T10:03:53.013Z,7.14
2019-02-23T10:06:23.538Z,7.13
2019-02-23T10:08:58.776Z,7.48
2019-02-23T10:11:28.003Z,7.65
2019-02-23T10:13:57.255Z,7.67
2019-02-23T10:16:30.282Z,7.79
2019-02-23T10:19:00.540Z,7.72
2019-02-23T10:21:34.572Z,7.54
2019-02-23T10:24:04.776Z,7.47
2019-02-23T10:26:34.281Z,7.35
2019-02-23T10:29:03.830Z,7.60
2019-02-23T10:31:33.175Z,7.44
2019-02-23T10:34:02.997Z,7.81
2019-02-23T10:36:36.123Z,7.63
2019-02-23T10:39:06.111Z,7.89
2019-02-23T10:41:36.967Z,7.94
2019-02-23T10:44:07.689Z,7.79
2019-02-23T10:46:36.915Z,7.89
2019-02-23T10:49:06.728Z,8.09
2019-02-23T10:51:35.898Z,7.98
2019-02-23T10:54:07.594Z,7.93
2019-02-23T10:56:39.018Z,7.92
2019-02-23T10:59:08.276Z,8.14
2019-02-23T11:01:38.464Z,8.42
2019-02-23T11:04:10.404Z,8.25
2019-02-23T11:06:40.745Z,8.07
2019-02-23T11:09:17.759Z,8.30
2019-02-23T11:11:48.444Z,8.43
2019-02-23T11:14:18.921Z,8.50
2019-02-23T11:16:48.018Z,8.81
2019-02-23T11:19:18.701Z,8.69
2019-02-23T11:21:48.120Z,8.86
2019-02-23T11:24:18.373Z,8.81
2019-02-23T11:26:50.791Z,8.69
2019-02-23T11:29:20.163Z,8.85
2019-02-23T11:31:49.389Z,8.54
2019-02-23T11:34:24.978Z,8.76
2019-02-23T11:36:54.187Z,8.95
2019-02-23T11:39:26.513Z,8.92
2019-02-23T11:41:59.994Z,9.29
2019-02-23T11:44:33.908Z,9.71
2019-02-23T11:47:10.019Z,9.77
2019-02-23T11:49:43.140Z,9.77
2019-02-23T11:52:17.601Z,9.74
2019-02-23T11:54:49.810Z,9.87
2019-02-23T11:57:19.194Z,9.98
2019-02-23T11:59:48.428Z,9.85
2019-02-23T12:02:17.641Z,10.12
2019-02-23T12:04:47.098Z,9.97
2019-02-23T12:07:16.862Z,7.47
2019-02-23T12:09:45.999Z,10.20
2019-02-23T12:12:16.019Z,10.59
2019-02-23T12:14:46.776Z,10.54
2019-02-23T12:17:19.908Z,10.69
2019-02-23T12:19:49.038Z,10.55
2019-02-23T12:22:18.562Z,10.78
2019-02-23T12:24:50.245Z,10.80
2019-02-23T12:27:19.584Z,11.06
2019-02-23T12:29:51.429Z,11.02
2019-02-23T12:32:23.111Z,11.05
2019-02-23T12:34:56.759Z,10.99
2019-02-23T12:37:26.046Z,11.40
2019-02-23T12:39:57.903Z,11.40
2019-02-23T12:42:27.753Z,11.82
2019-02-23T12:44:59.558Z,11.71
2019-02-23T12:47:29.129Z,11.42
2019-02-23T12:49:59.253Z,11.85
2019-02-23T12:52:28.422Z,11.48
2019-02-23T12:54:59.699Z,11.30
2019-02-23T12:57:36.329Z,11.53
2019-02-23T13:00:07.978Z,11.66
2019-02-23T13:02:39.911Z,11.46
2019-02-23T13:05:09.237Z,11.60
2019-02-23T13:07:38.325Z,11.31
2019-02-23T13:10:11.518Z,11.25
2019-02-23T13:13:36.838Z,11.41
2019-02-23T13:16:30.881Z,11.92
2019-02-23T13:19:59.314Z,11.81
2019-02-23T13:22:48.731Z,11.52
2019-02-23T13:25:48.728Z,11.58
2019-02-23T13:29:04.289Z,11.96
2019-02-23T13:32:05.577Z,11.87
2019-02-23T13:35:11.035Z,12.13
2019-02-23T13:38:25.998Z,12.05
2019-02-23T13:41:40.881Z,12.33
2019-02-23T13:45:00.398Z,12.27
2019-02-23T13:48:05.995Z,12.30
2019-02-23T13:51:19.116Z,12.77
2019-02-23T13:54:38.664Z,12.83
2019-02-23T13:57:37.521Z,12.76
2019-02-23T14:00:44.538Z,12.79
2019-02-23T14:03:38.964Z,12.89
2019-02-23T14:06:35.126Z,13.08
2019-02-23T14:09:40.207Z,13.67
2019-02-23T14:12:37.084Z,13.11
2019-02-23T14:15:57.017Z,11.47
2019-02-23T14:19:07.425Z,12.87
2019-02-23T14:22:28.662Z,13.22
2019-02-23T14:25:32.901Z,13.54
2019-02-23T14:28:35.569Z,13.80
2019-02-23T14:31:54.344Z,13.57
2019-02-23T14:35:28.963Z,13.23
2019-02-23T14:38:53.447Z,13.17
2019-02-23T14:41:47.028Z,13.38
2019-02-23T14:44:40.481Z,12.85
2019-02-23T14:47:41.515Z,12.65
2019-02-23T14:50:56.817Z,12.91
2019-02-23T14:53:53.036Z,12.51
2019-02-23T14:57:07.819Z,12.40
2019-02-23T15:00:08.349Z,12.45
2019-02-23T15:03:11.104Z,12.39
2019-02-23T15:05:54.391Z,12.26
2019-02-23T15:08:39.744Z,12.00
2019-02-23T15:11:53.073Z,12.05
2019-02-23T15:14:58.813Z,11.89
2019-02-23T15:18:07.779Z,11.83
2019-02-23T15:21:09.484Z,11.62
2019-02-23T15:24:18.753Z,11.32
2019-02-23T15:27:23.147Z,11.32
2019-02-23T15:30:22.948Z,11.32
2019-02-23T15:33:31.239Z,11.51
2019-02-23T15:36:14.978Z,11.27
2019-02-23T15:39:23.180Z,11.24
2019-02-23T15:42:21.572Z,11.35
2019-02-23T15:45:50.411Z,10.95
2019-02-23T15:49:22.347Z,10.99
2019-02-23T15:51:51.625Z,10.81
2019-02-23T15:54:29.084Z,10.74
2019-02-23T15:57:01.871Z,10.64
2019-02-23T15:59:36.423Z,10.70
2019-02-23T16:02:05.728Z,10.78
2019-02-23T16:04:55.981Z,10.38
2019-02-23T16:07:28.645Z,10.22
2019-02-23T16:10:04.775Z,10.21
2019-02-23T16:12:35.354Z,9.99
2019-02-23T16:15:06.933Z,9.94
2019-02-23T16:17:36.183Z,9.85
2019-02-23T16:20:10.061Z,9.88
2019-02-23T16:22:39.458Z,9.90
2019-02-23T16:25:09.459Z,9.87
2019-02-23T16:27:56.054Z,9.71
2019-02-23T16:30:30.262Z,9.80
2019-02-23T16:32:59.396Z,9.79
2019-02-23T16:35:30.572Z,9.61
2019-02-23T16:37:59.574Z,9.58
2019-02-23T16:40:28.707Z,9.40
2019-02-23T16:43:01.142Z,9.24
2019-02-23T16:45:33.198Z,9.42
2019-02-23T16:48:04.759Z,9.32
2019-02-23T16:50:34.829Z,9.16
2019-02-23T16:53:05.229Z,9.17
2019-02-23T16:55:35.375Z,9.11
2019-02-23T16:58:06.888Z,8.98
2019-02-23T17:00:37.361Z,8.81
2019-02-23T17:03:07.558Z,-0.94
2019-02-23T17:05:42.580Z,8.87
2019-02-23T17:08:12.262Z,8.90
2019-02-23T17:10:42.181Z,8.77
2019-02-23T17:13:12.142Z,8.74
2019-02-23T17:15:42.875Z,8.53
2019-02-23T17:18:14.516Z,8.55
2019-02-23T17:20:44.391Z,8.39
2019-02-23T17:23:17.808Z,8.42
2019-02-23T17:25:47.861Z,8.41
2019-02-23T17:28:19.921Z,8.36
2019-02-23T17:30:50.779Z,7.36
2019-02-23T17:33:22.037Z,8.24
2019-02-23T17:35:51.395Z,8.30
2019-02-23T17:38:25.187Z,8.19
2019-02-23T17:40:54.510Z,8.22
2019-02-23T17:43:25.830Z,8.21
2019-02-23T17:46:01.022Z,8.14
2019-02-23T17:51:02.573Z,8.09
2019-02-23T17:53:31.662Z,8.07
2019-02-23T17:56:10.451Z,8.19
2019-02-23T17:58:35.834Z,8.07
2019-02-23T18:01:05.197Z,7.91
2019-02-23T18:03:37.851Z,7.87
2019-02-23T18:06:10.136Z,7.95
2019-02-23T18:08:43.318Z,7.90
2019-02-23T18:11:29.844Z,7.75
2019-02-23T18:14:03.771Z,7.51
2019-02-23T18:16:33.141Z,7.43
2019-02-23T18:19:03.852Z,7.60
2019-02-23T18:21:33.080Z,7.56
2019-02-23T18:24:02.491Z,7.66
2019-02-23T18:26:31.631Z,7.57
2019-02-23T18:29:00.888Z,7.66
2019-02-23T18:31:35.079Z,7.55
2019-02-23T18:34:04.367Z,7.67
2019-02-23T18:36:33.473Z,7.59
2019-02-23T18:39:06.684Z,7.56
2019-02-23T18:41:33.588Z,7.53
2019-02-23T18:44:02.671Z,7.56
2019-02-23T18:46:31.836Z,7.78
2019-02-23T18:49:01.194Z,7.73
2019-02-23T18:51:33.781Z,7.65
2019-02-23T18:54:02.872Z,7.77
2019-02-23T18:56:32.086Z,7.60
2019-02-23T18:59:01.462Z,7.43
2019-02-23T19:01:30.842Z,7.52
2019-02-23T19:04:00.053Z,7.60
2019-02-23T19:06:29.148Z,7.57
2019-02-23T19:08:58.294Z,7.69
2019-02-23T19:11:27.412Z,7.50
2019-02-23T19:13:57.704Z,7.72
2019-02-23T19:16:29.427Z,7.56
2019-02-23T19:19:00.615Z,7.49
2019-02-23T19:21:32.490Z,7.59
2019-02-23T19:24:02.163Z,7.57
2019-02-23T19:26:37.983Z,7.50
2019-02-23T19:29:10.125Z,7.52
2019-02-23T19:31:39.225Z,7.62
2019-02-23T19:34:17.248Z,7.57
2019-02-23T19:36:48.798Z,7.64
2019-02-23T19:39:17.945Z,7.45
2019-02-23T19:41:48.232Z,7.53
2019-02-23T19:44:17.855Z,7.60
2019-02-23T19:47:27.758Z,7.56
2019-02-23T19:50:00.605Z,7.54
2019-02-23T19:52:29.686Z,7.62
2019-02-23T19:55:01.762Z,7.67
2019-02-23T19:57:31.667Z,7.89
2019-02-23T20:00:03.432Z,8.12
2019-02-23T20:02:32.682Z,8.28
2019-02-23T20:05:03.030Z,8.63
2019-02-23T20:07:35.109Z,8.52
2019-02-23T20:10:07.565Z,8.13
2019-02-23T20:12:38.104Z,7.88
2019-02-23T20:15:15.868Z,7.58
2019-02-23T20:17:45.216Z,7.45
2019-02-23T20:20:15.431Z,7.25
2019-02-23T20:22:46.164Z,7.30
2019-02-23T20:25:16.567Z,7.20
2019-02-23T20:27:49.006Z,7.43
2019-02-23T20:30:18.201Z,7.50
2019-02-23T20:32:47.308Z,7.34
2019-02-23T20:35:17.871Z,7.60
2019-02-23T20:37:48.370Z,7.41
2019-02-23T20:40:17.506Z,7.30
2019-02-23T20:42:46.891Z,7.21
2019-02-23T20:45:19.418Z,7.09
2019-02-23T20:47:48.608Z,7.26
2019-02-23T20:50:18.376Z,7.36
2019-02-23T20:52:48.956Z,7.40
2019-02-23T20:55:21.846Z,7.54
2019-02-23T20:57:54.057Z,7.46
2019-02-23T21:00:23.186Z,7.43
2019-02-23T21:02:53.407Z,7.54
2019-02-23T21:05:25.300Z,7.39
2019-02-23T21:07:57.185Z,7.31
2019-02-23T21:10:26.362Z,7.06
2019-02-23T21:12:55.686Z,6.86
2019-02-23T21:15:29.582Z,6.94
2019-02-23T21:17:58.770Z,6.85
2019-02-23T21:20:27.890Z,6.85
2019-02-23T21:22:59.900Z,7.15
2019-02-23T21:25:33.957Z,7.35
2019-02-23T21:28:06.738Z,7.48
2019-02-23T21:30:38.822Z,7.58
2019-02-23T21:33:08.716Z,7.38
2019-02-23T21:35:38.101Z,7.28
2019-02-23T21:38:07.912Z,7.43
2019-02-23T21:40:39.931Z,7.48
2019-02-23T21:43:09.381Z,7.79
2019-02-23T21:45:38.493Z,7.64
2019-02-23T21:48:09.339Z,7.76
2019-02-23T21:50:43.936Z,8.00
2019-02-23T21:53:13.936Z,7.71
2019-02-23T21:55:46.276Z,7.84
2019-02-23T21:58:15.405Z,7.71
2019-02-23T22:00:44.824Z,7.65
2019-02-23T22:03:17.513Z,8.24
2019-02-23T22:05:46.581Z,8.22
2019-02-23T22:08:25.889Z,8.26
2019-02-23T22:10:46.614Z,7.92
2019-02-23T22:13:15.723Z,7.86
2019-02-23T22:15:46.226Z,8.27
2019-02-23T22:18:19.569Z,8.42
2019-02-23T22:20:48.836Z,8.22
2019-02-23T22:23:18.215Z,8.23
2019-02-23T22:25:51.700Z,8.08
2019-02-23T22:28:21.940Z,7.89
2019-02-23T22:30:51.074Z,7.84
2019-02-23T22:33:20.197Z,8.21
2019-02-23T22:35:49.281Z,8.19
2019-02-23T22:38:18.361Z,7.78
2019-02-23T22:40:48.747Z,7.93
2019-02-23T22:43:19.473Z,8.02
2019-02-23T22:45:48.722Z,7.45
2019-02-23T22:48:19.131Z,7.45
2019-02-23T22:50:48.335Z,7.23
2019-02-23T22:53:20.593Z,7.20
2019-02-23T22:55:49.698Z,7.52
2019-02-23T22:58:18.802Z,7.53
2019-02-23T23:01:03.869Z,7.60
2019-02-23T23:03:33.227Z,7.55
2019-02-23T23:06:07.836Z,7.31
2019-02-23T23:08:38.873Z,7.54
2019-02-23T23:11:11.017Z,7.34
2019-02-23T23:13:46.726Z,7.01
2019-02-23T23:16:19.183Z,7.80
2019-02-23T23:18:48.280Z,7.52
2019-02-23T23:21:17.386Z,7.66
2019-02-23T23:23:46.675Z,7.81
2019-02-23T23:26:16.906Z,7.74
2019-02-23T23:28:47.047Z,7.86
2019-02-23T23:31:20.650Z,8.30
2019-02-23T23:33:49.737Z,8.42
2019-02-23T23:36:21.010Z,7.52
2019-02-23T23:38:53.854Z,7.66
2019-02-23T23:41:24.967Z,8.02
2019-02-23T23:43:55.098Z,8.07
2019-02-23T23:46:24.176Z,7.96
2019-02-23T23:48:53.274Z,7.56
2019-02-23T23:51:24.949Z,7.61
2019-02-23T23:54:00.112Z,7.41
2019-02-23T23:56:29.247Z,7.27
2019-02-23T23:58:58.311Z,7.17
